Pagina principală
METAR-TAF:

METAR-TAF

Aeroporturi :

Andahuaylas, Peru

Latitudine: 13-43S, longitudine: 073-21W, elevație: 3444 m

Observații meteo curente

Raportul a fost făcut în urmă cu 14 ore și 16 de minute, la 19:00 UTC
Vânt 8 kt de la Nord
Temperatură 19°C
Umiditate 46%
Presiune 1032 hPa
Vizibilitate de 10 km sau mai mult
nu există nori sub 1.500 m și nici cumulonimbus

METAR: SPHY 131900Z 36008KT CAVOK 19/07 Q1032 RMK BIRD HAZARD RWY03/21 PP000

Ora: 04:16 (09:16 UTC)

Prognoză

Raportul a fost făcut în urmă cu 16 ore și 16 de minute, la 17:00 UTC
Prognoză valabilă de la 13 ora 18 UTC la 14 ora 18 UTC
Vânt 7 kt de la Nord-est
Vizibilitate de 10 km sau mai mult
nu există nori sub 1.500 m și nici cumulonimbus

TAF: SPHY 131700Z 1318/1418 04007KT CAVOK TX18/1320Z TNN04/1411Z

Observații și prognoze meteo pentru peste 4.000 de aeroporturi (rapoarte METAR și TAF).

Stațiile disponibile sunt reprezentate pe hartă prin puncte galbene și roșii.

Țineți indicatorul mouse-ului pe punctul dorit pentru a vedea denumirea stației.

Apoi, faceți clic pentru a vedea observațiile și prognozele meteorologice.

Pentru a schimba harta: Pentru mărire, faceți clic pe butoanele verzi cu cruce neagră; pentru micșorare, pe butonul verde cu o liniuță; pentru hărți învecinate, pe săgețile verzi.


METAR-TAF: